CCA567 ZPPP-VMMC
Flight info
| Callsign | CCA567 |
|---|---|
| Flight time | 1h 26m |
| Altitude | 39100 |
| Route | LXI4Q LXI A599 POU |
| Aircraft | B77W/H-SDE1E2E3FGHIJ2J3J4J5M1RWXY/LB1D1 |
Departure
| Time | 2026-04-22 12:54 |
|---|---|
| Airport | Kunming Changshui International Airport (ZPPP) |
Arrival
| Time | 2026-04-22 14:20 |
|---|---|
| Airport | Macau International Airport (VMMC) |
| Time | Latitude | Longitude | Altitude | Speed | Heading |
|---|---|---|---|---|---|
| 2026-04-22 12:18 | 25.09826 | 102.93104 | 6902 ft | 0 kts | 219° |
| 2026-04-22 12:37 | 25.09827 | 102.93106 | 6902 ft | 2 kts | 219° |
| 2026-04-22 12:37 | 25.09846 | 102.93125 | 6902 ft | 4 kts | 226° |
| 2026-04-22 12:38 | 25.09865 | 102.93146 | 6902 ft | 4 kts | 217° |
| 2026-04-22 12:38 | 25.09885 | 102.93156 | 6902 ft | 4 kts | 181° |
| 2026-04-22 12:38 | 25.09907 | 102.93149 | 6902 ft | 4 kts | 126° |
| 2026-04-22 12:38 | 25.09921 | 102.93127 | 6902 ft | 1 kts | 128° |
| 2026-04-22 12:39 | 25.09924 | 102.93123 | 6902 ft | 0 kts | 128° |
| 2026-04-22 12:41 | 25.09923 | 102.93123 | 6902 ft | 1 kts | 128° |
| 2026-04-22 12:42 | 25.09893 | 102.93167 | 6902 ft | 15 kts | 127° |
| 2026-04-22 12:42 | 25.09807 | 102.93283 | 6901 ft | 21 kts | 129° |
| 2026-04-22 12:42 | 25.09760 | 102.93362 | 6901 ft | 8 kts | 101° |
| 2026-04-22 12:42 | 25.09783 | 102.93413 | 6900 ft | 8 kts | 38° |
| 2026-04-22 12:43 | 25.09828 | 102.93452 | 6900 ft | 9 kts | 38° |
| 2026-04-22 12:43 | 25.09893 | 102.93509 | 6900 ft | 18 kts | 38° |
| 2026-04-22 12:43 | 25.10029 | 102.93628 | 6899 ft | 29 kts | 38° |
| 2026-04-22 12:43 | 25.10186 | 102.93764 | 6899 ft | 29 kts | 38° |
| 2026-04-22 12:44 | 25.10330 | 102.93889 | 6899 ft | 17 kts | 38° |
| 2026-04-22 12:44 | 25.10404 | 102.93930 | 6899 ft | 12 kts | 359° |
| 2026-04-22 12:44 | 25.10465 | 102.93870 | 6899 ft | 12 kts | 311° |
| 2026-04-22 12:44 | 25.10518 | 102.93797 | 6899 ft | 13 kts | 308° |
| 2026-04-22 12:45 | 25.10582 | 102.93707 | 6900 ft | 17 kts | 309° |
| 2026-04-22 12:45 | 25.10664 | 102.93594 | 6901 ft | 20 kts | 308° |
| 2026-04-22 12:45 | 25.10759 | 102.93463 | 6903 ft | 23 kts | 308° |
| 2026-04-22 12:45 | 25.10857 | 102.93327 | 6922 ft | 23 kts | 308° |
| 2026-04-22 12:46 | 25.10956 | 102.93190 | 6920 ft | 23 kts | 308° |
| 2026-04-22 12:46 | 25.11054 | 102.93054 | 6924 ft | 23 kts | 309° |
| 2026-04-22 12:46 | 25.11152 | 102.92917 | 6922 ft | 23 kts | 308° |
| 2026-04-22 12:46 | 25.11207 | 102.92842 | 6917 ft | 8 kts | 315° |
| 2026-04-22 12:47 | 25.11258 | 102.92844 | 6920 ft | 8 kts | 25° |
| 2026-04-22 12:47 | 25.11328 | 102.92899 | 6922 ft | 24 kts | 38° |
| 2026-04-22 12:47 | 25.11506 | 102.93054 | 6918 ft | 35 kts | 38° |
| 2026-04-22 12:47 | 25.11694 | 102.93216 | 6919 ft | 34 kts | 38° |
| 2026-04-22 12:48 | 25.11873 | 102.93372 | 6912 ft | 32 kts | 38° |
| 2026-04-22 12:48 | 25.12043 | 102.93520 | 6918 ft | 31 kts | 38° |
| 2026-04-22 12:48 | 25.12208 | 102.93663 | 6916 ft | 30 kts | 38° |
| 2026-04-22 12:48 | 25.12371 | 102.93805 | 6909 ft | 30 kts | 38° |
| 2026-04-22 12:49 | 25.12535 | 102.93947 | 6903 ft | 30 kts | 38° |
| 2026-04-22 12:49 | 25.12698 | 102.94089 | 6902 ft | 30 kts | 38° |
| 2026-04-22 12:49 | 25.12861 | 102.94230 | 6901 ft | 26 kts | 38° |
| 2026-04-22 12:49 | 25.12913 | 102.94275 | 6901 ft | 8 kts | 38° |
| 2026-04-22 12:50 | 25.12964 | 102.94265 | 6901 ft | 9 kts | 304° |
| 2026-04-22 12:50 | 25.12996 | 102.94210 | 6900 ft | 9 kts | 305° |
| 2026-04-22 12:50 | 25.13023 | 102.94150 | 6899 ft | 9 kts | 261° |
| 2026-04-22 12:50 | 25.12985 | 102.94100 | 6899 ft | 0 kts | 219° |
| 2026-04-22 12:53 | 25.12956 | 102.94073 | 6899 ft | 17 kts | 219° |
| 2026-04-22 12:53 | 25.12695 | 102.93845 | 6902 ft | 82 kts | 218° |
| 2026-04-22 12:53 | 25.12082 | 102.93312 | 6913 ft | 141 kts | 218° |
| 2026-04-22 12:54 | 25.11197 | 102.92526 | 6956 ft | 180 kts | 220° |
| 2026-04-22 12:54 | 25.10204 | 102.91618 | 7377 ft | 190 kts | 221° |
| 2026-04-22 12:54 | 25.09287 | 102.90671 | 8229 ft | 174 kts | 233° |
| 2026-04-22 12:54 | 25.08539 | 102.89608 | 8763 ft | 180 kts | 235° |
| 2026-04-22 12:55 | 25.07717 | 102.88493 | 9027 ft | 202 kts | 220° |
| 2026-04-22 12:55 | 25.06276 | 102.88029 | 9156 ft | 241 kts | 179° |
| 2026-04-22 12:55 | 25.04578 | 102.88683 | 9339 ft | 277 kts | 157° |
| 2026-04-22 12:55 | 25.02806 | 102.89734 | 9788 ft | 297 kts | 156° |
| 2026-04-22 12:56 | 25.00973 | 102.90834 | 10414 ft | 307 kts | 156° |
| 2026-04-22 12:56 | 24.99019 | 102.91986 | 10644 ft | 333 kts | 156° |
| 2026-04-22 12:56 | 24.96889 | 102.93223 | 10869 ft | 360 kts | 156° |
| 2026-04-22 12:56 | 24.94632 | 102.94524 | 11491 ft | 373 kts | 156° |
| 2026-04-22 12:57 | 24.92314 | 102.95855 | 12312 ft | 379 kts | 156° |
| 2026-04-22 12:57 | 24.89963 | 102.97177 | 13353 ft | 382 kts | 156° |
| 2026-04-22 12:57 | 24.87586 | 102.98509 | 14298 ft | 386 kts | 156° |
| 2026-04-22 12:57 | 24.85180 | 102.99864 | 15107 ft | 394 kts | 157° |
| 2026-04-22 12:58 | 24.82725 | 103.01244 | 15981 ft | 402 kts | 157° |
| 2026-04-22 12:58 | 24.80314 | 103.02780 | 16758 ft | 409 kts | 146° |
| 2026-04-22 12:58 | 24.78373 | 103.05156 | 17505 ft | 428 kts | 124° |
| 2026-04-22 12:58 | 24.77155 | 103.08146 | 18302 ft | 436 kts | 112° |
| 2026-04-22 12:59 | 24.76085 | 103.11306 | 19038 ft | 443 kts | 112° |
| 2026-04-22 12:59 | 24.75020 | 103.14499 | 19773 ft | 449 kts | 112° |
| 2026-04-22 12:59 | 24.73938 | 103.17746 | 20596 ft | 454 kts | 112° |
| 2026-04-22 12:59 | 24.72833 | 103.21017 | 21361 ft | 461 kts | 113° |
| 2026-04-22 13:00 | 24.71707 | 103.24301 | 22088 ft | 468 kts | 113° |
| 2026-04-22 13:00 | 24.70553 | 103.27634 | 22789 ft | 475 kts | 114° |
| 2026-04-22 13:00 | 24.69356 | 103.31069 | 23504 ft | 482 kts | 114° |
| 2026-04-22 13:00 | 24.68138 | 103.34556 | 24097 ft | 489 kts | 114° |
| 2026-04-22 13:01 | 24.66920 | 103.38035 | 24635 ft | 495 kts | 114° |
| 2026-04-22 13:01 | 24.65708 | 103.41501 | 25224 ft | 500 kts | 114° |
| 2026-04-22 13:01 | 24.64493 | 103.44972 | 25781 ft | 506 kts | 114° |
| 2026-04-22 13:01 | 24.63381 | 103.48148 | 26244 ft | 511 kts | 114° |
| 2026-04-22 13:02 | 24.62342 | 103.51116 | 26684 ft | 517 kts | 114° |
| 2026-04-22 13:02 | 24.61059 | 103.54773 | 27142 ft | 524 kts | 115° |
| 2026-04-22 13:02 | 24.59866 | 103.58176 | 27661 ft | 530 kts | 115° |
| 2026-04-22 13:02 | 24.58936 | 103.60829 | 27991 ft | 535 kts | 115° |
| 2026-04-22 13:03 | 24.58043 | 103.63370 | 28412 ft | 536 kts | 115° |
| 2026-04-22 13:03 | 24.57195 | 103.65787 | 28851 ft | 537 kts | 115° |
| 2026-04-22 13:03 | 24.56073 | 103.68976 | 29327 ft | 541 kts | 115° |
| 2026-04-22 13:03 | 24.54708 | 103.72847 | 29717 ft | 549 kts | 115° |
| 2026-04-22 13:04 | 24.53428 | 103.76818 | 30136 ft | 557 kts | 110° |
| 2026-04-22 13:04 | 24.52417 | 103.80941 | 30579 ft | 563 kts | 106° |
| 2026-04-22 13:04 | 24.51572 | 103.85140 | 31027 ft | 566 kts | 104° |
| 2026-04-22 13:04 | 24.50789 | 103.89365 | 31499 ft | 566 kts | 104° |
| 2026-04-22 13:05 | 24.50001 | 103.93597 | 31957 ft | 568 kts | 104° |
| 2026-04-22 13:05 | 24.49178 | 103.97831 | 32378 ft | 568 kts | 105° |
| 2026-04-22 13:05 | 24.48319 | 104.02036 | 32764 ft | 570 kts | 105° |
| 2026-04-22 13:05 | 24.47428 | 104.06243 | 33231 ft | 570 kts | 106° |
| 2026-04-22 13:06 | 24.46529 | 104.10441 | 33629 ft | 570 kts | 106° |
| 2026-04-22 13:06 | 24.45615 | 104.14671 | 34062 ft | 569 kts | 106° |
| 2026-04-22 13:06 | 24.44700 | 104.18883 | 34534 ft | 568 kts | 106° |
| 2026-04-22 13:06 | 24.43786 | 104.23083 | 34977 ft | 566 kts | 106° |
| 2026-04-22 13:07 | 24.42880 | 104.27266 | 35470 ft | 564 kts | 105° |
| 2026-04-22 13:07 | 24.41974 | 104.31450 | 35880 ft | 564 kts | 105° |
| 2026-04-22 13:07 | 24.41069 | 104.35633 | 36235 ft | 564 kts | 105° |
| 2026-04-22 13:07 | 24.40168 | 104.39817 | 36554 ft | 565 kts | 105° |
| 2026-04-22 13:08 | 24.39268 | 104.43995 | 36914 ft | 563 kts | 105° |
| 2026-04-22 13:08 | 24.38365 | 104.48162 | 37348 ft | 562 kts | 105° |
| 2026-04-22 13:08 | 24.37459 | 104.52328 | 37590 ft | 564 kts | 105° |
| 2026-04-22 13:08 | 24.36545 | 104.56514 | 37894 ft | 565 kts | 105° |
| 2026-04-22 13:09 | 24.35659 | 104.60695 | 38296 ft | 564 kts | 104° |
| 2026-04-22 13:09 | 24.34765 | 104.64879 | 38543 ft | 565 kts | 105° |
| 2026-04-22 13:09 | 24.33844 | 104.69051 | 38844 ft | 564 kts | 105° |
| 2026-04-22 13:10 | 24.31998 | 104.77382 | 38903 ft | 565 kts | 105° |
| 2026-04-22 13:10 | 24.30147 | 104.85715 | 38904 ft | 563 kts | 105° |
| 2026-04-22 13:11 | 24.28323 | 104.94013 | 38873 ft | 562 kts | 105° |
| 2026-04-22 13:11 | 24.26507 | 105.02266 | 38875 ft | 558 kts | 105° |
| 2026-04-22 13:12 | 24.24688 | 105.10502 | 38867 ft | 556 kts | 105° |
| 2026-04-22 13:12 | 24.22865 | 105.18703 | 38880 ft | 555 kts | 105° |
| 2026-04-22 13:13 | 24.20999 | 105.26878 | 38885 ft | 554 kts | 106° |
| 2026-04-22 13:13 | 24.19009 | 105.35013 | 38880 ft | 553 kts | 107° |
| 2026-04-22 13:14 | 24.17016 | 105.43127 | 38885 ft | 553 kts | 107° |
| 2026-04-22 13:14 | 24.15042 | 105.51242 | 38891 ft | 553 kts | 107° |
| 2026-04-22 13:15 | 24.13068 | 105.59360 | 38879 ft | 553 kts | 107° |
| 2026-04-22 13:15 | 24.11092 | 105.67467 | 38881 ft | 551 kts | 107° |
| 2026-04-22 13:16 | 24.09213 | 105.75579 | 38881 ft | 551 kts | 104° |
| 2026-04-22 13:16 | 24.07631 | 105.83776 | 38880 ft | 552 kts | 103° |
| 2026-04-22 13:17 | 24.06075 | 105.91983 | 38867 ft | 551 kts | 103° |
| 2026-04-22 13:17 | 24.04463 | 106.00156 | 38853 ft | 550 kts | 104° |
| 2026-04-22 13:18 | 24.02826 | 106.08285 | 38854 ft | 547 kts | 104° |
| 2026-04-22 13:18 | 24.01192 | 106.16383 | 38853 ft | 546 kts | 104° |
| 2026-04-22 13:19 | 23.99561 | 106.24465 | 38860 ft | 544 kts | 104° |
| 2026-04-22 13:19 | 23.97931 | 106.32524 | 38862 ft | 544 kts | 104° |
| 2026-04-22 13:20 | 23.96299 | 106.40573 | 38857 ft | 543 kts | 104° |
| 2026-04-22 13:20 | 23.94665 | 106.48607 | 38861 ft | 542 kts | 104° |
| 2026-04-22 13:21 | 23.93029 | 106.56630 | 38861 ft | 542 kts | 104° |
| 2026-04-22 13:21 | 23.91879 | 106.64746 | 38868 ft | 542 kts | 95° |
| 2026-04-22 13:22 | 23.91385 | 106.72951 | 38867 ft | 542 kts | 94° |
| 2026-04-22 13:22 | 23.90913 | 106.81140 | 38871 ft | 541 kts | 94° |
| 2026-04-22 13:23 | 23.90390 | 106.89335 | 38869 ft | 541 kts | 94° |
| 2026-04-22 13:23 | 23.89839 | 106.97514 | 38865 ft | 541 kts | 95° |
| 2026-04-22 13:24 | 23.89282 | 107.05687 | 38869 ft | 541 kts | 94° |
| 2026-04-22 13:24 | 23.88723 | 107.13869 | 38864 ft | 540 kts | 94° |
| 2026-04-22 13:25 | 23.88164 | 107.22033 | 38866 ft | 539 kts | 94° |
| 2026-04-22 13:25 | 23.87601 | 107.30187 | 38866 ft | 539 kts | 95° |
| 2026-04-22 13:26 | 23.87033 | 107.38334 | 38858 ft | 539 kts | 95° |
| 2026-04-22 13:26 | 23.86461 | 107.46477 | 38864 ft | 539 kts | 95° |
| 2026-04-22 13:27 | 23.85885 | 107.54625 | 38866 ft | 539 kts | 95° |
| 2026-04-22 13:27 | 23.85304 | 107.62779 | 38864 ft | 539 kts | 95° |
| 2026-04-22 13:28 | 23.84720 | 107.70929 | 38874 ft | 539 kts | 95° |
| 2026-04-22 13:28 | 23.84131 | 107.79074 | 38886 ft | 539 kts | 95° |
| 2026-04-22 13:29 | 23.83551 | 107.87229 | 38887 ft | 540 kts | 94° |
| 2026-04-22 13:29 | 23.83133 | 107.95419 | 38880 ft | 541 kts | 93° |
| 2026-04-22 13:30 | 23.82751 | 108.03614 | 38892 ft | 542 kts | 93° |
| 2026-04-22 13:30 | 23.82332 | 108.11802 | 38896 ft | 542 kts | 93° |
| 2026-04-22 13:31 | 23.81896 | 108.19986 | 38891 ft | 542 kts | 94° |
| 2026-04-22 13:31 | 23.81434 | 108.28189 | 38885 ft | 542 kts | 94° |
| 2026-04-22 13:32 | 23.80963 | 108.36389 | 38879 ft | 542 kts | 94° |
| 2026-04-22 13:32 | 23.80492 | 108.44568 | 38894 ft | 541 kts | 94° |
| 2026-04-22 13:33 | 23.80019 | 108.52757 | 38884 ft | 542 kts | 94° |
| 2026-04-22 13:33 | 23.79545 | 108.60899 | 38892 ft | 542 kts | 94° |
| 2026-04-22 13:34 | 23.79063 | 108.69086 | 38954 ft | 540 kts | 94° |
| 2026-04-22 13:34 | 23.78579 | 108.77255 | 38975 ft | 541 kts | 94° |
| 2026-04-22 13:35 | 23.78088 | 108.85434 | 38988 ft | 541 kts | 94° |
| 2026-04-22 13:35 | 23.77593 | 108.93619 | 38988 ft | 542 kts | 94° |
| 2026-04-22 13:36 | 23.77094 | 109.01807 | 38983 ft | 542 kts | 94° |
| 2026-04-22 13:36 | 23.76591 | 109.09994 | 38980 ft | 541 kts | 94° |
| 2026-04-22 13:37 | 23.75732 | 109.18113 | 38968 ft | 539 kts | 103° |
| 2026-04-22 13:37 | 23.74090 | 109.26073 | 38980 ft | 539 kts | 105° |
| 2026-04-22 13:38 | 23.72415 | 109.34022 | 38980 ft | 539 kts | 104° |
| 2026-04-22 13:38 | 23.69992 | 109.45955 | 38977 ft | 538 kts | 104° |
| 2026-04-22 13:39 | 23.68385 | 109.53910 | 38978 ft | 537 kts | 104° |
| 2026-04-22 13:39 | 23.66771 | 109.61840 | 38977 ft | 536 kts | 104° |
| 2026-04-22 13:40 | 23.65146 | 109.69760 | 38978 ft | 536 kts | 104° |
| 2026-04-22 13:40 | 23.63512 | 109.77673 | 38978 ft | 535 kts | 104° |
| 2026-04-22 13:41 | 23.61881 | 109.85563 | 38972 ft | 533 kts | 104° |
| 2026-04-22 13:41 | 23.60257 | 109.93420 | 38977 ft | 531 kts | 104° |
| 2026-04-22 13:42 | 23.58630 | 110.01245 | 38961 ft | 529 kts | 104° |
| 2026-04-22 13:42 | 23.57009 | 110.09027 | 38977 ft | 526 kts | 104° |
| 2026-04-22 13:43 | 23.55392 | 110.16780 | 38972 ft | 525 kts | 104° |
| 2026-04-22 13:43 | 23.53772 | 110.24523 | 38972 ft | 525 kts | 104° |
| 2026-04-22 13:44 | 23.52148 | 110.32264 | 38970 ft | 525 kts | 104° |
| 2026-04-22 13:44 | 23.50531 | 110.40005 | 38971 ft | 525 kts | 104° |
| 2026-04-22 13:45 | 23.48958 | 110.47769 | 38965 ft | 526 kts | 104° |
| 2026-04-22 13:45 | 23.47384 | 110.55548 | 38971 ft | 526 kts | 104° |
| 2026-04-22 13:46 | 23.45800 | 110.63311 | 38972 ft | 527 kts | 104° |
| 2026-04-22 13:46 | 23.44206 | 110.71093 | 38972 ft | 527 kts | 104° |
| 2026-04-22 13:47 | 23.42586 | 110.78851 | 38975 ft | 527 kts | 104° |
| 2026-04-22 13:47 | 23.40937 | 110.86588 | 38976 ft | 525 kts | 104° |
| 2026-04-22 13:48 | 23.39293 | 110.94300 | 38961 ft | 523 kts | 104° |
| 2026-04-22 13:48 | 23.37660 | 111.01975 | 38962 ft | 521 kts | 104° |
| 2026-04-22 13:49 | 23.36028 | 111.09622 | 38968 ft | 519 kts | 104° |
| 2026-04-22 13:49 | 23.34404 | 111.17250 | 38971 ft | 518 kts | 104° |
| 2026-04-22 13:50 | 23.32858 | 111.24884 | 38966 ft | 517 kts | 103° |
| 2026-04-22 13:50 | 23.31329 | 111.32515 | 38967 ft | 517 kts | 103° |
| 2026-04-22 13:51 | 23.29786 | 111.40126 | 38811 ft | 519 kts | 103° |
| 2026-04-22 13:51 | 23.29005 | 111.43953 | 38394 ft | 520 kts | 103° |
| 2026-04-22 13:51 | 23.28228 | 111.47767 | 37899 ft | 515 kts | 103° |
| 2026-04-22 13:52 | 23.27456 | 111.51548 | 37456 ft | 510 kts | 103° |
| 2026-04-22 13:52 | 23.26687 | 111.55276 | 37038 ft | 504 kts | 104° |
| 2026-04-22 13:52 | 23.25900 | 111.58977 | 36613 ft | 500 kts | 104° |
| 2026-04-22 13:52 | 23.25114 | 111.62628 | 36218 ft | 495 kts | 104° |
| 2026-04-22 13:53 | 23.24332 | 111.66251 | 35797 ft | 491 kts | 104° |
| 2026-04-22 13:53 | 23.23559 | 111.69846 | 35383 ft | 488 kts | 104° |
| 2026-04-22 13:53 | 23.22792 | 111.73418 | 34951 ft | 485 kts | 104° |
| 2026-04-22 13:53 | 23.22031 | 111.76971 | 34525 ft | 482 kts | 104° |
| 2026-04-22 13:54 | 23.21271 | 111.80506 | 34088 ft | 480 kts | 104° |
| 2026-04-22 13:54 | 23.20517 | 111.84021 | 33616 ft | 479 kts | 103° |
| 2026-04-22 13:54 | 23.19780 | 111.87535 | 33148 ft | 476 kts | 103° |
| 2026-04-22 13:54 | 23.19058 | 111.91029 | 32703 ft | 473 kts | 103° |
| 2026-04-22 13:55 | 23.18341 | 111.94508 | 32266 ft | 471 kts | 103° |
| 2026-04-22 13:55 | 23.17631 | 111.97953 | 31851 ft | 468 kts | 103° |
| 2026-04-22 13:55 | 23.16919 | 112.01389 | 31426 ft | 466 kts | 103° |
| 2026-04-22 13:55 | 23.16208 | 112.04817 | 30987 ft | 465 kts | 104° |
| 2026-04-22 13:56 | 23.15498 | 112.08223 | 30566 ft | 463 kts | 104° |
| 2026-04-22 13:56 | 23.14789 | 112.11619 | 30132 ft | 461 kts | 104° |
| 2026-04-22 13:56 | 23.14082 | 112.15001 | 29649 ft | 459 kts | 103° |
| 2026-04-22 13:56 | 23.13378 | 112.18366 | 29182 ft | 456 kts | 103° |
| 2026-04-22 13:57 | 23.12677 | 112.21715 | 28726 ft | 453 kts | 104° |
| 2026-04-22 13:57 | 23.11981 | 112.25029 | 28268 ft | 450 kts | 104° |
| 2026-04-22 13:57 | 23.11290 | 112.28328 | 27856 ft | 447 kts | 104° |
| 2026-04-22 13:57 | 23.10604 | 112.31599 | 27438 ft | 444 kts | 104° |
| 2026-04-22 13:58 | 23.09921 | 112.34849 | 26994 ft | 442 kts | 104° |
| 2026-04-22 13:58 | 23.09238 | 112.38092 | 26573 ft | 439 kts | 104° |
| 2026-04-22 13:58 | 23.08559 | 112.41313 | 26157 ft | 437 kts | 104° |
| 2026-04-22 13:58 | 23.07884 | 112.44512 | 25731 ft | 435 kts | 104° |
| 2026-04-22 13:59 | 23.07225 | 112.47693 | 25313 ft | 433 kts | 102° |
| 2026-04-22 13:59 | 23.06783 | 112.50915 | 24880 ft | 432 kts | 95° |
| 2026-04-22 13:59 | 23.06561 | 112.54155 | 24459 ft | 430 kts | 94° |
| 2026-04-22 13:59 | 23.06366 | 112.57380 | 24040 ft | 429 kts | 94° |
| 2026-04-22 14:00 | 23.06174 | 112.60604 | 23610 ft | 428 kts | 94° |
| 2026-04-22 14:00 | 23.05977 | 112.63815 | 23147 ft | 427 kts | 94° |
| 2026-04-22 14:00 | 23.05772 | 112.67025 | 22677 ft | 425 kts | 94° |
| 2026-04-22 14:00 | 23.05563 | 112.70208 | 22248 ft | 422 kts | 95° |
| 2026-04-22 14:01 | 23.05351 | 112.73374 | 21817 ft | 419 kts | 95° |
| 2026-04-22 14:01 | 23.05138 | 112.76515 | 21387 ft | 417 kts | 95° |
| 2026-04-22 14:01 | 23.04927 | 112.79630 | 20966 ft | 414 kts | 95° |
| 2026-04-22 14:01 | 23.04715 | 112.82728 | 20551 ft | 411 kts | 95° |
| 2026-04-22 14:02 | 23.04504 | 112.85812 | 20129 ft | 409 kts | 95° |
| 2026-04-22 14:02 | 23.04295 | 112.88866 | 19729 ft | 406 kts | 95° |
| 2026-04-22 14:02 | 23.04085 | 112.91917 | 19280 ft | 405 kts | 95° |
| 2026-04-22 14:02 | 23.03876 | 112.94946 | 18868 ft | 403 kts | 95° |
| 2026-04-22 14:03 | 23.03668 | 112.97965 | 18440 ft | 401 kts | 95° |
| 2026-04-22 14:03 | 23.03460 | 113.00974 | 18004 ft | 400 kts | 95° |
| 2026-04-22 14:03 | 23.03251 | 113.03972 | 17539 ft | 398 kts | 95° |
| 2026-04-22 14:03 | 23.03044 | 113.06954 | 17113 ft | 396 kts | 95° |
| 2026-04-22 14:04 | 23.02837 | 113.09924 | 16685 ft | 394 kts | 95° |
| 2026-04-22 14:04 | 23.02631 | 113.12868 | 16266 ft | 391 kts | 95° |
| 2026-04-22 14:04 | 23.02426 | 113.15791 | 15863 ft | 389 kts | 95° |
| 2026-04-22 14:04 | 23.02161 | 113.18682 | 15441 ft | 382 kts | 102° |
| 2026-04-22 14:05 | 23.01258 | 113.21340 | 15033 ft | 371 kts | 121° |
| 2026-04-22 14:05 | 23.00018 | 113.23773 | 14669 ft | 369 kts | 121° |
| 2026-04-22 14:05 | 22.97605 | 113.28653 | 13873 ft | 367 kts | 120° |
| 2026-04-22 14:06 | 22.96420 | 113.31105 | 13459 ft | 367 kts | 120° |
| 2026-04-22 14:06 | 22.95248 | 113.33548 | 13030 ft | 365 kts | 120° |
| 2026-04-22 14:06 | 22.94081 | 113.35986 | 12617 ft | 363 kts | 120° |
| 2026-04-22 14:06 | 22.92923 | 113.38407 | 12217 ft | 361 kts | 120° |
| 2026-04-22 14:07 | 22.91773 | 113.40809 | 11828 ft | 359 kts | 120° |
| 2026-04-22 14:07 | 22.90626 | 113.43202 | 11447 ft | 357 kts | 120° |
| 2026-04-22 14:07 | 22.89484 | 113.45570 | 11055 ft | 351 kts | 122° |
| 2026-04-22 14:07 | 22.87994 | 113.47560 | 10666 ft | 337 kts | 146° |
| 2026-04-22 14:08 | 22.86009 | 113.48781 | 10421 ft | 322 kts | 164° |
| 2026-04-22 14:08 | 22.83895 | 113.49393 | 10196 ft | 310 kts | 172° |
| 2026-04-22 14:08 | 22.81809 | 113.49854 | 9959 ft | 304 kts | 173° |
| 2026-04-22 14:08 | 22.79759 | 113.50291 | 9741 ft | 299 kts | 173° |
| 2026-04-22 14:09 | 22.77735 | 113.50721 | 9485 ft | 294 kts | 173° |
| 2026-04-22 14:09 | 22.75758 | 113.51145 | 9247 ft | 288 kts | 173° |
| 2026-04-22 14:09 | 22.73806 | 113.51570 | 9038 ft | 282 kts | 173° |
| 2026-04-22 14:09 | 22.71910 | 113.51988 | 8820 ft | 277 kts | 173° |
| 2026-04-22 14:10 | 22.70030 | 113.52404 | 8614 ft | 274 kts | 173° |
| 2026-04-22 14:10 | 22.68184 | 113.52815 | 8490 ft | 270 kts | 173° |
| 2026-04-22 14:10 | 22.66342 | 113.53224 | 8335 ft | 270 kts | 173° |
| 2026-04-22 14:10 | 22.64503 | 113.53634 | 8149 ft | 271 kts | 172° |
| 2026-04-22 14:11 | 22.62653 | 113.54046 | 7951 ft | 273 kts | 172° |
| 2026-04-22 14:11 | 22.60792 | 113.54461 | 7751 ft | 274 kts | 172° |
| 2026-04-22 14:11 | 22.58919 | 113.54880 | 7543 ft | 276 kts | 172° |
| 2026-04-22 14:11 | 22.57043 | 113.55299 | 7338 ft | 277 kts | 172° |
| 2026-04-22 14:12 | 22.55155 | 113.55721 | 7101 ft | 277 kts | 171° |
| 2026-04-22 14:12 | 22.53278 | 113.56143 | 6909 ft | 276 kts | 171° |
| 2026-04-22 14:12 | 22.51410 | 113.56670 | 6617 ft | 279 kts | 167° |
| 2026-04-22 14:12 | 22.49557 | 113.57284 | 6305 ft | 279 kts | 166° |
| 2026-04-22 14:13 | 22.47710 | 113.57906 | 5976 ft | 278 kts | 166° |
| 2026-04-22 14:13 | 22.45870 | 113.58519 | 5685 ft | 276 kts | 166° |
| 2026-04-22 14:13 | 22.44048 | 113.59121 | 5408 ft | 273 kts | 166° |
| 2026-04-22 14:13 | 22.42244 | 113.59712 | 5119 ft | 271 kts | 166° |
| 2026-04-22 14:14 | 22.40449 | 113.60297 | 4848 ft | 269 kts | 166° |
| 2026-04-22 14:14 | 22.38668 | 113.60876 | 4567 ft | 267 kts | 166° |
| 2026-04-22 14:14 | 22.36917 | 113.61445 | 4206 ft | 255 kts | 166° |
| 2026-04-22 14:14 | 22.35284 | 113.61969 | 3982 ft | 233 kts | 167° |
| 2026-04-22 14:15 | 22.33808 | 113.62434 | 3759 ft | 213 kts | 167° |
| 2026-04-22 14:15 | 22.32435 | 113.62865 | 3495 ft | 199 kts | 168° |
| 2026-04-22 14:15 | 22.31099 | 113.63282 | 3253 ft | 203 kts | 168° |
| 2026-04-22 14:15 | 22.29742 | 113.63706 | 3005 ft | 202 kts | 167° |
| 2026-04-22 14:16 | 22.28399 | 113.64072 | 2756 ft | 196 kts | 174° |
| 2026-04-22 14:16 | 22.27084 | 113.64015 | 2539 ft | 185 kts | 197° |
| 2026-04-22 14:16 | 22.25987 | 113.63443 | 2333 ft | 168 kts | 216° |
| 2026-04-22 14:16 | 22.25145 | 113.62661 | 2153 ft | 157 kts | 227° |
| 2026-04-22 14:17 | 22.24475 | 113.61723 | 2011 ft | 157 kts | 232° |
| 2026-04-22 14:17 | 22.23814 | 113.60816 | 1923 ft | 152 kts | 228° |
| 2026-04-22 14:17 | 22.23135 | 113.59912 | 1742 ft | 161 kts | 231° |
| 2026-04-22 14:17 | 22.22472 | 113.58959 | 1452 ft | 156 kts | 231° |
| 2026-04-22 14:18 | 22.21817 | 113.58060 | 1232 ft | 148 kts | 224° |
| 2026-04-22 14:18 | 22.20976 | 113.57540 | 1005 ft | 135 kts | 197° |
| 2026-04-22 14:18 | 22.20061 | 113.57366 | 875 ft | 137 kts | 183° |
| 2026-04-22 14:18 | 22.19132 | 113.57601 | 706 ft | 137 kts | 161° |
| 2026-04-22 14:19 | 22.18241 | 113.57933 | 528 ft | 136 kts | 162° |
| 2026-04-22 14:19 | 22.17349 | 113.58260 | 337 ft | 136 kts | 166° |
| 2026-04-22 14:19 | 22.16465 | 113.58584 | 183 ft | 135 kts | 163° |
| 2026-04-22 14:19 | 22.15589 | 113.58918 | 46 ft | 133 kts | 163° |
| 2026-04-22 14:20 | 22.14237 | 113.59403 | 34 ft | 68 kts | 161° |
| 2026-04-22 14:20 | 22.13911 | 113.59523 | 36 ft | 27 kts | 161° |
| 2026-04-22 14:20 | 22.13766 | 113.59576 | 35 ft | 12 kts | 161° |
| 2026-04-22 14:21 | 22.13666 | 113.59540 | 33 ft | 10 kts | 251° |
| 2026-04-22 14:21 | 22.13652 | 113.59466 | 33 ft | 11 kts | 277° |
| 2026-04-22 14:22 | 22.13754 | 113.59395 | 33 ft | 10 kts | 341° |
| 2026-04-22 14:22 | 22.13822 | 113.59370 | 33 ft | 11 kts | 341° |
| 2026-04-22 14:22 | 22.13980 | 113.59311 | 33 ft | 13 kts | 341° |
| 2026-04-22 14:23 | 22.14070 | 113.59279 | 33 ft | 14 kts | 341° |
| 2026-04-22 14:23 | 22.14161 | 113.59245 | 33 ft | 14 kts | 341° |
| 2026-04-22 14:23 | 22.14252 | 113.59211 | 33 ft | 14 kts | 341° |
| 2026-04-22 14:23 | 22.14343 | 113.59177 | 33 ft | 14 kts | 341° |
| 2026-04-22 14:24 | 22.14434 | 113.59144 | 33 ft | 14 kts | 341° |
| 2026-04-22 14:24 | 22.14525 | 113.59110 | 33 ft | 14 kts | 341° |
| 2026-04-22 14:24 | 22.14616 | 113.59077 | 33 ft | 14 kts | 341° |
| 2026-04-22 14:24 | 22.14707 | 113.59042 | 33 ft | 14 kts | 336° |
| 2026-04-22 14:25 | 22.14771 | 113.58965 | 34 ft | 14 kts | 304° |
| 2026-04-22 14:25 | 22.14825 | 113.58879 | 33 ft | 14 kts | 304° |
| 2026-04-22 14:25 | 22.14879 | 113.58792 | 33 ft | 14 kts | 303° |
| 2026-04-22 14:25 | 22.14934 | 113.58702 | 33 ft | 15 kts | 303° |
| 2026-04-22 14:26 | 22.14999 | 113.58597 | 33 ft | 18 kts | 304° |
| 2026-04-22 14:26 | 22.15072 | 113.58478 | 33 ft | 20 kts | 303° |
| 2026-04-22 14:26 | 22.15149 | 113.58353 | 33 ft | 20 kts | 304° |
| 2026-04-22 14:26 | 22.15227 | 113.58228 | 33 ft | 20 kts | 304° |
| 2026-04-22 14:27 | 22.15304 | 113.58103 | 33 ft | 20 kts | 303° |
| 2026-04-22 14:27 | 22.15382 | 113.57977 | 34 ft | 20 kts | 303° |
| 2026-04-22 14:27 | 22.15459 | 113.57852 | 34 ft | 20 kts | 304° |
| 2026-04-22 14:27 | 22.15537 | 113.57727 | 34 ft | 20 kts | 304° |
| 2026-04-22 14:28 | 22.15590 | 113.57642 | 34 ft | 9 kts | 303° |
| 2026-04-22 14:28 | 22.15630 | 113.57593 | 34 ft | 5 kts | 314° |
| 2026-04-22 14:28 | 22.15646 | 113.57576 | 34 ft | 3 kts | 314° |
| 2026-04-22 14:28 | 22.15663 | 113.57556 | 34 ft | 4 kts | 314° |
| 2026-04-22 14:29 | 22.15679 | 113.57539 | 34 ft | 2 kts | 314° |
| 2026-04-22 14:29 | 22.15685 | 113.57532 | 34 ft | 1 kts | 314° |
| 2026-04-22 14:29 | 22.15691 | 113.57526 | 34 ft | 1 kts | 314° |
| 2026-04-22 14:29 | 22.15694 | 113.57523 | 34 ft | 1 kts | 314° |
| 2026-04-22 14:30 | 22.15698 | 113.57518 | 34 ft | 1 kts | 314° |
| 2026-04-22 14:30 | 22.15699 | 113.57517 | 34 ft | 0 kts | 314° |